sensor_id;sensor_type;location;lat;lon;timestamp;temperature;humidity
21801;DHT22;11062;51.164;16.924;2022-09-21T00:09:22;26.80;44.90
21801;DHT22;11062;51.164;16.924;2022-09-21T00:11:48;26.80;44.40
21801;DHT22;11062;51.164;16.924;2022-09-21T00:14:14;26.70;44.40
21801;DHT22;11062;51.164;16.924;2022-09-21T00:16:41;26.70;44.70
21801;DHT22;11062;51.164;16.924;2022-09-21T00:19:09;26.40;45.00
21801;DHT22;11062;51.164;16.924;2022-09-21T00:21:35;26.40;45.50
21801;DHT22;11062;51.164;16.924;2022-09-21T00:24:04;26.30;45.00
21801;DHT22;11062;51.164;16.924;2022-09-21T00:26:30;26.40;45.10
21801;DHT22;11062;51.164;16.924;2022-09-21T00:28:58;26.20;45.50
21801;DHT22;11062;51.164;16.924;2022-09-21T00:31:28;26.00;46.20
21801;DHT22;11062;51.164;16.924;2022-09-21T01:05:02;27.40;43.40
21801;DHT22;11062;51.164;16.924;2022-09-21T01:07:30;27.10;44.30
21801;DHT22;11062;51.164;16.924;2022-09-21T01:10:03;26.40;43.90
21801;DHT22;11062;51.164;16.924;2022-09-21T01:15:38;27.10;43.30
21801;DHT22;11062;51.164;16.924;2022-09-21T02:11:03;26.20;45.00
21801;DHT22;11062;51.164;16.924;2022-09-21T02:13:35;26.00;44.90
21801;DHT22;11062;51.164;16.924;2022-09-21T02:19:00;26.30;47.90
21801;DHT22;11062;51.164;16.924;2022-09-21T02:36:10;26.10;45.60
21801;DHT22;11062;51.164;16.924;2022-09-21T02:42:31;25.50;44.00
21801;DHT22;11062;51.164;16.924;2022-09-21T02:45:21;26.30;44.20
21801;DHT22;11062;51.164;16.924;2022-09-21T02:47:51;26.90;44.50
21801;DHT22;11062;51.164;16.924;2022-09-21T03:14:55;27.10;44.20
21801;DHT22;11062;51.164;16.924;2022-09-21T03:17:21;26.90;45.10
21801;DHT22;11062;51.164;16.924;2022-09-21T03:19:46;26.80;44.80
21801;DHT22;11062;51.164;16.924;2022-09-21T03:22:22;26.80;44.80
21801;DHT22;11062;51.164;16.924;2022-09-21T03:24:52;25.10;44.30
21801;DHT22;11062;51.164;16.924;2022-09-21T03:27:22;25.90;45.50
21801;DHT22;11062;51.164;16.924;2022-09-21T03:29:48;26.60;46.40
21801;DHT22;11062;51.164;16.924;2022-09-21T03:32:15;27.80;46.50
21801;DHT22;11062;51.164;16.924;2022-09-21T03:34:47;26.30;45.80
21801;DHT22;11062;51.164;16.924;2022-09-21T03:37:13;26.40;46.40
21801;DHT22;11062;51.164;16.924;2022-09-21T03:39:46;25.60;45.50
21801;DHT22;11062;51.164;16.924;2022-09-21T03:42:12;26.40;46.00
21801;DHT22;11062;51.164;16.924;2022-09-21T03:44:40;25.60;46.00
21801;DHT22;11062;51.164;16.924;2022-09-21T03:47:34;25.20;44.90
21801;DHT22;11062;51.164;16.924;2022-09-21T03:52:39;26.50;45.60
21801;DHT22;11062;51.164;16.924;2022-09-21T03:55:07;25.80;45.60
21801;DHT22;11062;51.164;16.924;2022-09-21T03:57:34;26.60;46.10
21801;DHT22;11062;51.164;16.924;2022-09-21T04:00:03;26.50;45.90
21801;DHT22;11062;51.164;16.924;2022-09-21T04:02:30;26.20;45.50
21801;DHT22;11062;51.164;16.924;2022-09-21T04:04:56;26.20;45.70
21801;DHT22;11062;51.164;16.924;2022-09-21T04:07:22;24.80;46.00
21801;DHT22;11062;51.164;16.924;2022-09-21T04:09:48;26.10;47.50
21801;DHT22;11062;51.164;16.924;2022-09-21T04:12:14;26.10;46.40
21801;DHT22;11062;51.164;16.924;2022-09-21T04:14:41;25.90;47.00
21801;DHT22;11062;51.164;16.924;2022-09-21T04:17:06;25.80;47.90
21801;DHT22;11062;51.164;16.924;2022-09-21T04:19:38;26.40;45.90
21801;DHT22;11062;51.164;16.924;2022-09-21T04:22:04;25.90;47.80
21801;DHT22;11062;51.164;16.924;2022-09-21T04:24:31;26.00;45.90
21801;DHT22;11062;51.164;16.924;2022-09-21T04:26:57;25.80;47.00
21801;DHT22;11062;51.164;16.924;2022-09-21T04:29:23;25.90;47.80
21801;DHT22;11062;51.164;16.924;2022-09-21T04:31:49;26.20;47.80
21801;DHT22;11062;51.164;16.924;2022-09-21T04:34:15;26.30;47.80
21801;DHT22;11062;51.164;16.924;2022-09-21T04:36:41;26.10;48.10
21801;DHT22;11062;51.164;16.924;2022-09-21T04:39:08;26.50;48.30
21801;DHT22;11062;51.164;16.924;2022-09-21T04:41:34;25.40;45.40
21801;DHT22;11062;51.164;16.924;2022-09-21T04:44:00;26.40;45.50
21801;DHT22;11062;51.164;16.924;2022-09-21T04:46:26;26.20;45.20
21801;DHT22;11062;51.164;16.924;2022-09-21T04:48:52;26.40;45.50
21801;DHT22;11062;51.164;16.924;2022-09-21T04:51:21;26.40;47.20
21801;DHT22;11062;51.164;16.924;2022-09-21T05:01:47;25.90;46.00
21801;DHT22;11062;51.164;16.924;2022-09-21T05:06:51;25.70;46.50
21801;DHT22;11062;51.164;16.924;2022-09-21T05:09:19;25.50;47.60
21801;DHT22;11062;51.164;16.924;2022-09-21T05:12:03;25.40;47.50
21801;DHT22;11062;51.164;16.924;2022-09-21T05:14:29;25.80;48.30
21801;DHT22;11062;51.164;16.924;2022-09-21T05:17:05;25.60;47.40
21801;DHT22;11062;51.164;16.924;2022-09-21T05:19:37;25.60;46.40
21801;DHT22;11062;51.164;16.924;2022-09-21T05:22:09;25.90;46.70
21801;DHT22;11062;51.164;16.924;2022-09-21T05:24:38;25.90;46.80
21801;DHT22;11062;51.164;16.924;2022-09-21T05:27:04;25.60;46.80
21801;DHT22;11062;51.164;16.924;2022-09-21T05:29:31;25.30;47.50
21801;DHT22;11062;51.164;16.924;2022-09-21T05:44:12;26.60;45.30
21801;DHT22;11062;51.164;16.924;2022-09-21T05:55:24;25.40;45.50
21801;DHT22;11062;51.164;16.924;2022-09-21T05:58:05;27.10;46.20
21801;DHT22;11062;51.164;16.924;2022-09-21T06:03:52;27.80;44.40
21801;DHT22;11062;51.164;16.924;2022-09-21T06:06:22;27.30;45.10
21801;DHT22;11062;51.164;16.924;2022-09-21T06:08:48;29.90;47.70
21801;DHT22;11062;51.164;16.924;2022-09-21T06:11:15;28.10;45.40
21801;DHT22;11062;51.164;16.924;2022-09-21T06:13:43;26.80;44.60
21801;DHT22;11062;51.164;16.924;2022-09-21T06:16:10;28.00;44.40
21801;DHT22;11062;51.164;16.924;2022-09-21T06:18:40;28.00;45.30
21801;DHT22;11062;51.164;16.924;2022-09-21T06:21:07;27.70;43.90
21801;DHT22;11062;51.164;16.924;2022-09-21T06:23:34;28.30;44.80
21801;DHT22;11062;51.164;16.924;2022-09-21T06:26:01;26.70;43.40
21801;DHT22;11062;51.164;16.924;2022-09-21T06:28:27;28.60;45.00
21801;DHT22;11062;51.164;16.924;2022-09-21T06:30:59;26.80;43.40
21801;DHT22;11062;51.164;16.924;2022-09-21T06:33:25;28.50;45.70
21801;DHT22;11062;51.164;16.924;2022-09-21T06:35:59;28.50;44.00
21801;DHT22;11062;51.164;16.924;2022-09-21T06:38:27;28.70;44.70
21801;DHT22;11062;51.164;16.924;2022-09-21T06:40:54;28.70;43.70
21801;DHT22;11062;51.164;16.924;2022-09-21T06:43:20;28.90;43.30
21801;DHT22;11062;51.164;16.924;2022-09-21T06:45:53;29.00;44.40
21801;DHT22;11062;51.164;16.924;2022-09-21T06:48:20;29.10;43.40
21801;DHT22;11062;51.164;16.924;2022-09-21T06:50:46;29.00;44.10
21801;DHT22;11062;51.164;16.924;2022-09-21T06:53:12;29.00;45.10
21801;DHT22;11062;51.164;16.924;2022-09-21T06:55:39;29.20;44.80
21801;DHT22;11062;51.164;16.924;2022-09-21T06:58:05;29.60;43.80
21801;DHT22;11062;51.164;16.924;2022-09-21T07:00:31;28.80;43.70
21801;DHT22;11062;51.164;16.924;2022-09-21T07:03:00;29.00;43.30
21801;DHT22;11062;51.164;16.924;2022-09-21T07:05:26;28.70;45.80
21801;DHT22;11062;51.164;16.924;2022-09-21T07:07:57;28.90;45.40
21801;DHT22;11062;51.164;16.924;2022-09-21T07:10:23;28.70;43.30
21801;DHT22;11062;51.164;16.924;2022-09-21T07:12:49;27.50;42.30
21801;DHT22;11062;51.164;16.924;2022-09-21T07:15:17;29.00;43.40
21801;DHT22;11062;51.164;16.924;2022-09-21T07:17:44;28.90;44.50
21801;DHT22;11062;51.164;16.924;2022-09-21T07:20:10;29.00;44.90
21801;DHT22;11062;51.164;16.924;2022-09-21T07:22:36;29.10;45.20
21801;DHT22;11062;51.164;16.924;2022-09-21T07:25:04;27.60;43.20
21801;DHT22;11062;51.164;16.924;2022-09-21T07:27:31;29.10;44.30
21801;DHT22;11062;51.164;16.924;2022-09-21T07:29:57;28.80;44.50
21801;DHT22;11062;51.164;16.924;2022-09-21T07:32:23;28.60;45.20
21801;DHT22;11062;51.164;16.924;2022-09-21T07:34:50;26.80;43.70
21801;DHT22;11062;51.164;16.924;2022-09-21T07:37:21;28.60;44.70
21801;DHT22;11062;51.164;16.924;2022-09-21T07:39:49;28.70;44.70
21801;DHT22;11062;51.164;16.924;2022-09-21T07:42:16;28.70;45.10
21801;DHT22;11062;51.164;16.924;2022-09-21T07:44:47;28.90;45.90
21801;DHT22;11062;51.164;16.924;2022-09-21T07:47:14;28.90;45.20
21801;DHT22;11062;51.164;16.924;2022-09-21T07:49:43;28.90;44.90
21801;DHT22;11062;51.164;16.924;2022-09-21T07:52:11;28.70;46.00
21801;DHT22;11062;51.164;16.924;2022-09-21T07:54:37;28.90;46.20
21801;DHT22;11062;51.164;16.924;2022-09-21T07:57:03;28.90;44.90
21801;DHT22;11062;51.164;16.924;2022-09-21T07:59:47;28.80;44.80
21801;DHT22;11062;51.164;16.924;2022-09-21T08:02:13;29.10;46.00
21801;DHT22;11062;51.164;16.924;2022-09-21T08:04:39;29.30;45.40
21801;DHT22;11062;51.164;16.924;2022-09-21T08:07:05;29.70;45.40
21801;DHT22;11062;51.164;16.924;2022-09-21T08:09:31;30.20;44.90
21801;DHT22;11062;51.164;16.924;2022-09-21T08:11:57;29.80;44.40
21801;DHT22;11062;51.164;16.924;2022-09-21T08:14:26;29.60;44.60
21801;DHT22;11062;51.164;16.924;2022-09-21T08:16:52;28.20;44.00
21801;DHT22;11062;51.164;16.924;2022-09-21T08:19:17;29.70;44.60
21801;DHT22;11062;51.164;16.924;2022-09-21T08:21:47;29.90;44.20
21801;DHT22;11062;51.164;16.924;2022-09-21T08:24:15;29.90;44.10
21801;DHT22;11062;51.164;16.924;2022-09-21T08:26:41;28.70;43.40
21801;DHT22;11062;51.164;16.924;2022-09-21T08:29:07;29.80;44.70
21801;DHT22;11062;51.164;16.924;2022-09-21T08:31:33;29.90;45.20
21801;DHT22;11062;51.164;16.924;2022-09-21T08:33:59;30.10;45.10
21801;DHT22;11062;51.164;16.924;2022-09-21T08:36:25;30.10;44.60
21801;DHT22;11062;51.164;16.924;2022-09-21T08:38:51;30.30;43.60
21801;DHT22;11062;51.164;16.924;2022-09-21T08:44:23;30.50;42.80
21801;DHT22;11062;51.164;16.924;2022-09-21T08:47:02;30.30;43.20
21801;DHT22;11062;51.164;16.924;2022-09-21T08:49:30;30.50;42.90
21801;DHT22;11062;51.164;16.924;2022-09-21T08:52:05;30.30;43.60
21801;DHT22;11062;51.164;16.924;2022-09-21T08:55:04;30.40;43.30
21801;DHT22;11062;51.164;16.924;2022-09-21T08:57:33;30.20;43.50
21801;DHT22;11062;51.164;16.924;2022-09-21T09:00:19;29.00;43.70
21801;DHT22;11062;51.164;16.924;2022-09-21T09:05:58;30.60;43.30
21801;DHT22;11062;51.164;16.924;2022-09-21T09:08:55;30.70;43.40
21801;DHT22;11062;51.164;16.924;2022-09-21T09:19:49;30.60;42.90
21801;DHT22;11062;51.164;16.924;2022-09-21T09:22:25;30.70;42.90
21801;DHT22;11062;51.164;16.924;2022-09-21T09:25:01;30.50;43.10
21801;DHT22;11062;51.164;16.924;2022-09-21T09:27:38;28.60;42.70
21801;DHT22;11062;51.164;16.924;2022-09-21T09:30:25;30.40;43.50
21801;DHT22;11062;51.164;16.924;2022-09-21T09:33:07;30.30;44.00
21801;DHT22;11062;51.164;16.924;2022-09-21T09:35:43;28.90;43.20
21801;DHT22;11062;51.164;16.924;2022-09-21T09:46:52;30.40;44.90
21801;DHT22;11062;51.164;16.924;2022-09-21T09:52:14;31.00;42.70
21801;DHT22;11062;51.164;16.924;2022-09-21T09:54:41;31.00;44.60
21801;DHT22;11062;51.164;16.924;2022-09-21T09:57:08;31.40;42.90
21801;DHT22;11062;51.164;16.924;2022-09-21T09:59:37;31.50;43.00
21801;DHT22;11062;51.164;16.924;2022-09-21T10:02:22;31.70;42.50
21801;DHT22;11062;51.164;16.924;2022-09-21T10:05:03;31.80;41.50
21801;DHT22;11062;51.164;16.924;2022-09-21T10:07:38;32.30;41.50
21801;DHT22;11062;51.164;16.924;2022-09-21T10:13:18;30.40;40.10
21801;DHT22;11062;51.164;16.924;2022-09-21T10:21:08;32.20;41.60
21801;DHT22;11062;51.164;16.924;2022-09-21T10:23:46;32.30;41.60
21801;DHT22;11062;51.164;16.924;2022-09-21T10:26:13;32.00;41.80
21801;DHT22;11062;51.164;16.924;2022-09-21T10:28:59;32.00;41.60
21801;DHT22;11062;51.164;16.924;2022-09-21T10:31:27;32.50;41.50
21801;DHT22;11062;51.164;16.924;2022-09-21T10:34:13;32.40;41.70
21801;DHT22;11062;51.164;16.924;2022-09-21T10:36:39;31.30;40.00
21801;DHT22;11062;51.164;16.924;2022-09-21T10:39:31;32.50;41.20
21801;DHT22;11062;51.164;16.924;2022-09-21T10:42:05;32.70;40.60
21801;DHT22;11062;51.164;16.924;2022-09-21T10:50:33;33.00;40.60
21801;DHT22;11062;51.164;16.924;2022-09-21T10:53:10;33.10;40.50
21801;DHT22;11062;51.164;16.924;2022-09-21T10:55:52;33.00;39.60
21801;DHT22;11062;51.164;16.924;2022-09-21T10:58:21;32.70;39.30
21801;DHT22;11062;51.164;16.924;2022-09-21T11:00:49;31.50;39.50
21801;DHT22;11062;51.164;16.924;2022-09-21T11:06:06;32.60;40.60
21801;DHT22;11062;51.164;16.924;2022-09-21T11:08:43;33.00;39.90
21801;DHT22;11062;51.164;16.924;2022-09-21T11:17:06;33.80;38.60
21801;DHT22;11062;51.164;16.924;2022-09-21T11:20:07;34.30;38.40
21801;DHT22;11062;51.164;16.924;2022-09-21T11:22:58;34.90;38.40
21801;DHT22;11062;51.164;16.924;2022-09-21T11:25:36;34.10;37.00
21801;DHT22;11062;51.164;16.924;2022-09-21T11:28:13;34.40;36.70
21801;DHT22;11062;51.164;16.924;2022-09-21T11:33:36;31.10;34.70
21801;DHT22;11062;51.164;16.924;2022-09-21T11:39:29;33.20;37.10
21801;DHT22;11062;51.164;16.924;2022-09-21T11:44:56;33.70;37.30
21801;DHT22;11062;51.164;16.924;2022-09-21T11:56:15;33.20;37.20
21801;DHT22;11062;51.164;16.924;2022-09-21T11:59:23;33.20;37.00
21801;DHT22;11062;51.164;16.924;2022-09-21T12:07:34;31.80;37.80
21801;DHT22;11062;51.164;16.924;2022-09-21T12:12:57;33.50;38.10
21801;DHT22;11062;51.164;16.924;2022-09-21T12:21:01;33.70;36.00
21801;DHT22;11062;51.164;16.924;2022-09-21T12:23:42;33.80;36.30
21801;DHT22;11062;51.164;16.924;2022-09-21T12:26:14;33.70;35.60
21801;DHT22;11062;51.164;16.924;2022-09-21T12:28:45;33.40;36.30
21801;DHT22;11062;51.164;16.924;2022-09-21T12:31:26;32.80;35.50
21801;DHT22;11062;51.164;16.924;2022-09-21T12:34:25;33.40;36.80
21801;DHT22;11062;51.164;16.924;2022-09-21T12:40:04;32.00;35.40
21801;DHT22;11062;51.164;16.924;2022-09-21T12:42:47;33.70;36.30
21801;DHT22;11062;51.164;16.924;2022-09-21T12:45:35;33.80;36.10
21801;DHT22;11062;51.164;16.924;2022-09-21T12:48:08;35.50;37.10
21801;DHT22;11062;51.164;16.924;2022-09-21T12:50:43;33.70;36.20
21801;DHT22;11062;51.164;16.924;2022-09-21T12:53:18;33.30;36.40
21801;DHT22;11062;51.164;16.924;2022-09-21T12:55:53;33.30;36.10
21801;DHT22;11062;51.164;16.924;2022-09-21T13:01:05;33.40;36.00
21801;DHT22;11062;51.164;16.924;2022-09-21T13:04:01;33.70;36.90
21801;DHT22;11062;51.164;16.924;2022-09-21T13:06:55;33.80;37.30
21801;DHT22;11062;51.164;16.924;2022-09-21T13:09:27;34.00;36.90
21801;DHT22;11062;51.164;16.924;2022-09-21T13:12:13;33.90;36.40
21801;DHT22;11062;51.164;16.924;2022-09-21T13:14:49;33.80;36.20
21801;DHT22;11062;51.164;16.924;2022-09-21T13:17:30;33.20;36.10
21801;DHT22;11062;51.164;16.924;2022-09-21T13:20:03;33.90;36.80
21801;DHT22;11062;51.164;16.924;2022-09-21T13:22:34;33.80;36.40
21801;DHT22;11062;51.164;16.924;2022-09-21T13:28:05;33.40;37.00
21801;DHT22;11062;51.164;16.924;2022-09-21T13:33:39;32.70;38.80
21801;DHT22;11062;51.164;16.924;2022-09-21T13:36:32;33.00;39.70
21801;DHT22;11062;51.164;16.924;2022-09-21T13:41:29;32.60;39.10
21801;DHT22;11062;51.164;16.924;2022-09-21T13:43:59;32.80;38.80
21801;DHT22;11062;51.164;16.924;2022-09-21T13:54:24;34.00;40.20
21801;DHT22;11062;51.164;16.924;2022-09-21T13:57:04;34.30;39.30
21801;DHT22;11062;51.164;16.924;2022-09-21T13:59:33;34.80;36.90
21801;DHT22;11062;51.164;16.924;2022-09-21T14:02:00;34.60;37.00
21801;DHT22;11062;51.164;16.924;2022-09-21T14:04:31;34.50;35.40
21801;DHT22;11062;51.164;16.924;2022-09-21T14:07:02;34.50;35.60
21801;DHT22;11062;51.164;16.924;2022-09-21T14:09:52;34.80;35.70
21801;DHT22;11062;51.164;16.924;2022-09-21T14:12:21;35.50;36.10
21801;DHT22;11062;51.164;16.924;2022-09-21T14:15:32;34.40;35.00
21801;DHT22;11062;51.164;16.924;2022-09-21T14:23:34;34.30;35.90
21801;DHT22;11062;51.164;16.924;2022-09-21T14:26:19;34.20;35.50
21801;DHT22;11062;51.164;16.924;2022-09-21T14:28:49;33.20;35.10
21801;DHT22;11062;51.164;16.924;2022-09-21T14:31:20;34.00;35.90
21801;DHT22;11062;51.164;16.924;2022-09-21T14:33:52;33.90;36.00
21801;DHT22;11062;51.164;16.924;2022-09-21T14:36:31;34.30;35.90
21801;DHT22;11062;51.164;16.924;2022-09-21T14:39:05;34.30;35.80
21801;DHT22;11062;51.164;16.924;2022-09-21T14:41:38;34.40;35.90
21801;DHT22;11062;51.164;16.924;2022-09-21T14:44:06;34.40;35.80
21801;DHT22;11062;51.164;16.924;2022-09-21T15:00:48;33.20;34.60
21801;DHT22;11062;51.164;16.924;2022-09-21T15:06:11;34.80;35.60
21801;DHT22;11062;51.164;16.924;2022-09-21T15:09:27;34.90;35.90
21801;DHT22;11062;51.164;16.924;2022-09-21T15:12:17;35.10;35.10
21801;DHT22;11062;51.164;16.924;2022-09-21T15:14:58;35.00;35.50
21801;DHT22;11062;51.164;16.924;2022-09-21T15:17:28;35.20;35.90
21801;DHT22;11062;51.164;16.924;2022-09-21T15:19:59;35.30;34.70
21801;DHT22;11062;51.164;16.924;2022-09-21T15:22:26;35.40;34.40
21801;DHT22;11062;51.164;16.924;2022-09-21T15:25:02;35.40;35.30
21801;DHT22;11062;51.164;16.924;2022-09-21T15:27:30;35.60;34.10
21801;DHT22;11062;51.164;16.924;2022-09-21T15:29:58;35.60;34.00
21801;DHT22;11062;51.164;16.924;2022-09-21T15:32:46;35.50;34.90
21801;DHT22;11062;51.164;16.924;2022-09-21T15:35:21;34.40;33.90
21801;DHT22;11062;51.164;16.924;2022-09-21T15:37:49;35.00;34.50
21801;DHT22;11062;51.164;16.924;2022-09-21T15:40:26;35.00;34.80
21801;DHT22;11062;51.164;16.924;2022-09-21T15:46:04;34.80;34.90
21801;DHT22;11062;51.164;16.924;2022-09-21T15:48:33;34.20;34.70
21801;DHT22;11062;51.164;16.924;2022-09-21T15:51:18;32.80;34.40
21801;DHT22;11062;51.164;16.924;2022-09-21T15:54:51;35.00;35.10
21801;DHT22;11062;51.164;16.924;2022-09-21T15:57:00;35.00;35.10
21801;DHT22;11062;51.164;16.924;2022-09-21T15:59:28;35.00;35.30
21801;DHT22;11062;51.164;16.924;2022-09-21T16:01:57;34.20;36.30
21801;DHT22;11062;51.164;16.924;2022-09-21T16:04:26;32.10;34.70
21801;DHT22;11062;51.164;16.924;2022-09-21T16:07:00;33.00;35.60
21801;DHT22;11062;51.164;16.924;2022-09-21T16:09:41;33.90;35.60
21801;DHT22;11062;51.164;16.924;2022-09-21T16:12:28;33.70;34.90
21801;DHT22;11062;51.164;16.924;2022-09-21T16:15:03;33.60;35.70
21801;DHT22;11062;51.164;16.924;2022-09-21T16:17:35;33.50;35.30
21801;DHT22;11062;51.164;16.924;2022-09-21T16:22:42;32.40;34.40
21801;DHT22;11062;51.164;16.924;2022-09-21T16:27:52;33.50;36.00
21801;DHT22;11062;51.164;16.924;2022-09-21T16:30:49;32.40;35.20
21801;DHT22;11062;51.164;16.924;2022-09-21T16:33:43;33.20;35.40
21801;DHT22;11062;51.164;16.924;2022-09-21T16:38:52;32.60;36.60
21801;DHT22;11062;51.164;16.924;2022-09-21T16:41:21;32.60;36.30
21801;DHT22;11062;51.164;16.924;2022-09-21T16:43:49;32.30;36.50
21801;DHT22;11062;51.164;16.924;2022-09-21T16:46:16;32.00;38.30
21801;DHT22;11062;51.164;16.924;2022-09-21T16:48:42;32.00;37.20
21801;DHT22;11062;51.164;16.924;2022-09-21T16:51:13;31.90;38.30
21801;DHT22;11062;51.164;16.924;2022-09-21T16:53:40;31.10;37.50
21801;DHT22;11062;51.164;16.924;2022-09-21T16:56:12;31.40;37.60
21801;DHT22;11062;51.164;16.924;2022-09-21T16:58:43;31.40;38.40
21801;DHT22;11062;51.164;16.924;2022-09-21T17:01:19;31.60;38.10
21801;DHT22;11062;51.164;16.924;2022-09-21T17:03:46;29.50;37.20
21801;DHT22;11062;51.164;16.924;2022-09-21T17:06:21;31.80;38.50
21801;DHT22;11062;51.164;16.924;2022-09-21T17:08:48;30.50;36.80
21801;DHT22;11062;51.164;16.924;2022-09-21T17:11:14;32.00;38.20
21801;DHT22;11062;51.164;16.924;2022-09-21T17:13:49;32.10;38.10
21801;DHT22;11062;51.164;16.924;2022-09-21T17:16:17;32.20;38.00
21801;DHT22;11062;51.164;16.924;2022-09-21T17:18:47;32.30;38.50
21801;DHT22;11062;51.164;16.924;2022-09-21T17:21:14;32.30;38.30
21801;DHT22;11062;51.164;16.924;2022-09-21T17:23:40;32.40;38.40
21801;DHT22;11062;51.164;16.924;2022-09-21T17:26:16;32.40;38.70
21801;DHT22;11062;51.164;16.924;2022-09-21T17:28:44;32.50;39.10
21801;DHT22;11062;51.164;16.924;2022-09-21T17:31:15;32.30;38.10
21801;DHT22;11062;51.164;16.924;2022-09-21T17:33:42;32.40;38.10
21801;DHT22;11062;51.164;16.924;2022-09-21T17:36:12;32.50;39.10
21801;DHT22;11062;51.164;16.924;2022-09-21T17:38:38;32.20;38.10
21801;DHT22;11062;51.164;16.924;2022-09-21T17:41:24;32.20;39.00
21801;DHT22;11062;51.164;16.924;2022-09-21T17:49:34;32.40;40.10
21801;DHT22;11062;51.164;16.924;2022-09-21T17:52:00;33.60;40.00
21801;DHT22;11062;51.164;16.924;2022-09-21T17:54:44;32.30;39.30
21801;DHT22;11062;51.164;16.924;2022-09-21T17:57:33;32.40;39.40
21801;DHT22;11062;51.164;16.924;2022-09-21T18:00:26;32.40;38.80
21801;DHT22;11062;51.164;16.924;2022-09-21T18:02:56;34.90;40.90
21801;DHT22;11062;51.164;16.924;2022-09-21T18:05:27;30.20;38.10
21801;DHT22;11062;51.164;16.924;2022-09-21T18:07:53;30.70;37.80
21801;DHT22;11062;51.164;16.924;2022-09-21T18:10:21;32.50;38.90
21801;DHT22;11062;51.164;16.924;2022-09-21T18:13:00;31.20;37.90
21801;DHT22;11062;51.164;16.924;2022-09-21T18:16:14;30.90;37.30
21801;DHT22;11062;51.164;16.924;2022-09-21T18:21:22;32.90;38.70
21801;DHT22;11062;51.164;16.924;2022-09-21T18:27:05;32.90;38.30
21801;DHT22;11062;51.164;16.924;2022-09-21T18:50:32;32.70;38.70
21801;DHT22;11062;51.164;16.924;2022-09-21T18:53:31;32.80;38.90
21801;DHT22;11062;51.164;16.924;2022-09-21T18:56:09;31.80;38.20
21801;DHT22;11062;51.164;16.924;2022-09-21T18:58:39;31.00;37.80
21801;DHT22;11062;51.164;16.924;2022-09-21T19:01:20;31.00;38.40
21801;DHT22;11062;51.164;16.924;2022-09-21T19:03:57;32.70;39.10
21801;DHT22;11062;51.164;16.924;2022-09-21T19:15:16;31.70;38.80
21801;DHT22;11062;51.164;16.924;2022-09-21T19:18:17;34.00;40.40
21801;DHT22;11062;51.164;16.924;2022-09-21T19:21:04;32.60;39.70
21801;DHT22;11062;51.164;16.924;2022-09-21T19:24:01;31.40;38.80
21801;DHT22;11062;51.164;16.924;2022-09-21T19:50:33;32.00;40.00
21801;DHT22;11062;51.164;16.924;2022-09-21T19:55:42;31.90;40.20
21801;DHT22;11062;51.164;16.924;2022-09-21T19:58:28;31.90;41.00
21801;DHT22;11062;51.164;16.924;2022-09-21T20:01:18;32.00;40.50
21801;DHT22;11062;51.164;16.924;2022-09-21T20:03:46;32.30;40.30
21801;DHT22;11062;51.164;16.924;2022-09-21T20:06:26;32.00;40.80
21801;DHT22;11062;51.164;16.924;2022-09-21T20:14:34;31.90;40.00
21801;DHT22;11062;51.164;16.924;2022-09-21T20:17:02;32.30;39.90
21801;DHT22;11062;51.164;16.924;2022-09-21T20:19:58;30.60;39.70
21801;DHT22;11062;51.164;16.924;2022-09-21T20:22:36;32.00;39.70
21801;DHT22;11062;51.164;16.924;2022-09-21T20:25:17;31.90;40.30
21801;DHT22;11062;51.164;16.924;2022-09-21T20:27:53;32.00;39.50
21801;DHT22;11062;51.164;16.924;2022-09-21T20:30:28;31.90;40.10
21801;DHT22;11062;51.164;16.924;2022-09-21T20:33:04;31.80;40.20
21801;DHT22;11062;51.164;16.924;2022-09-21T20:35:32;31.80;40.30
21801;DHT22;11062;51.164;16.924;2022-09-21T20:37:58;29.60;38.70
21801;DHT22;11062;51.164;16.924;2022-09-21T20:40:25;29.90;39.60
21801;DHT22;11062;51.164;16.924;2022-09-21T20:42:57;32.50;40.40
21801;DHT22;11062;51.164;16.924;2022-09-21T20:45:31;31.90;40.50
21801;DHT22;11062;51.164;16.924;2022-09-21T20:48:03;32.10;40.60
21801;DHT22;11062;51.164;16.924;2022-09-21T20:51:15;32.70;40.80
21801;DHT22;11062;51.164;16.924;2022-09-21T20:54:04;33.10;39.50
21801;DHT22;11062;51.164;16.924;2022-09-21T20:57:02;32.20;41.40
21801;DHT22;11062;51.164;16.924;2022-09-21T21:07:39;32.30;39.20
21801;DHT22;11062;51.164;16.924;2022-09-21T21:39:09;31.90;40.20
21801;DHT22;11062;51.164;16.924;2022-09-21T21:44:43;31.80;40.20
21801;DHT22;11062;51.164;16.924;2022-09-21T21:47:11;31.90;41.80
21801;DHT22;11062;51.164;16.924;2022-09-21T21:49:37;32.00;40.60
21801;DHT22;11062;51.164;16.924;2022-09-21T21:52:03;31.80;41.00
21801;DHT22;11062;51.164;16.924;2022-09-21T21:54:33;31.80;40.40
21801;DHT22;11062;51.164;16.924;2022-09-21T21:57:00;31.70;40.60
21801;DHT22;11062;51.164;16.924;2022-09-21T21:59:27;31.70;41.00
21801;DHT22;11062;51.164;16.924;2022-09-21T22:01:53;30.90;40.20
21801;DHT22;11062;51.164;16.924;2022-09-21T22:04:19;31.70;41.10
21801;DHT22;11062;51.164;16.924;2022-09-21T22:09:24;31.80;40.20
21801;DHT22;11062;51.164;16.924;2022-09-21T22:11:53;30.30;41.60
21801;DHT22;11062;51.164;16.924;2022-09-21T22:14:19;31.70;40.70
21801;DHT22;11062;51.164;16.924;2022-09-21T22:16:45;31.90;42.40
21801;DHT22;11062;51.164;16.924;2022-09-21T22:19:12;29.80;39.40
21801;DHT22;11062;51.164;16.924;2022-09-21T22:21:52;29.90;39.50
21801;DHT22;11062;51.164;16.924;2022-09-21T22:24:19;31.90;40.90
21801;DHT22;11062;51.164;16.924;2022-09-21T22:26:46;31.90;40.40
21801;DHT22;11062;51.164;16.924;2022-09-21T22:34:32;31.80;39.90
21801;DHT22;11062;51.164;16.924;2022-09-21T22:37:01;32.80;41.40
21801;DHT22;11062;51.164;16.924;2022-09-21T22:39:31;31.60;40.40
21801;DHT22;11062;51.164;16.924;2022-09-21T22:50:06;31.70;39.80
21801;DHT22;11062;51.164;16.924;2022-09-21T22:52:34;31.50;41.00
21801;DHT22;11062;51.164;16.924;2022-09-21T22:55:01;31.50;41.50
21801;DHT22;11062;51.164;16.924;2022-09-21T22:57:28;29.10;38.80
21801;DHT22;11062;51.164;16.924;2022-09-21T22:59:58;31.00;40.70
21801;DHT22;11062;51.164;16.924;2022-09-21T23:02:27;30.60;40.50
21801;DHT22;11062;51.164;16.924;2022-09-21T23:04:54;31.50;41.00
21801;DHT22;11062;51.164;16.924;2022-09-21T23:07:21;29.90;40.20
21801;DHT22;11062;51.164;16.924;2022-09-21T23:09:52;30.50;40.90
21801;DHT22;11062;51.164;16.924;2022-09-21T23:12:28;31.50;41.30
21801;DHT22;11062;51.164;16.924;2022-09-21T23:15:25;31.10;41.00